Latest Weather Observations for Borroloola

IDD60801

Issued at 9:01 pm CST Thursday 22 June 2017 (issued every 30 minutes, with the page automatically refreshed every 10 minutes)

About weather observations | Map of weather stations | Latest weather observations for NT | Other Formats
Station Details ID: 014723 Name: BORROLOOLA AIRPORT Lat: -16.08 Lon: 136.30 Height: 16.1 m
Data from the previous 72 hours. | See also: Recent months at Borroloola
Date/Time
CST
Temp
°C
App
Temp
°C
Dew
Point
°C
Rel
Hum
%
Delta-T
°C
Wind Press
QNH
hPa
Press
MSL
hPa
Rain since
9am
mm
Dir  Spd
km/h
Gust
km/h
Spd
kts
Gust
kts
22/09:00pm 22.5 24.4 18.9 80 2.3 NE 7 11 4 6 1016.9 1016.8 0.0
22/08:30pm 22.9 24.9 19.1 79 2.4 NE 7 13 4 7 1016.6 1016.5 0.0
22/08:00pm 23.2 24.8 19.2 78 2.5 NE 9 17 5 9 1016.2 1016.1 0.0
22/07:30pm 23.6 24.4 19.1 76 2.9 NE 13 19 7 10 1016.0 1015.9 0.0
22/07:00pm 24.2 24.1 18.8 72 3.4 NE 17 24 9 13 1015.5 1015.4 0.0
22/06:30pm 24.9 24.8 18.8 69 3.9 NE 17 24 9 13 1015.1 1015.0 0.0
22/06:00pm 25.9 25.2 18.3 63 4.8 NE 19 26 10 14 1014.9 1014.8 0.0
22/05:30pm 26.9 26.2 17.4 56 6.0 NE 17 22 9 12 1014.5 1014.4 0.0
22/05:00pm 28.3 26.9 16.6 49 7.3 NE 19 26 10 14 1014.2 1014.1 0.0
22/04:30pm 29.0 27.7 16.9 48 7.6 ENE 19 26 10 14 1013.8 1013.7 0.0
22/04:00pm 29.2 27.5 15.7 44 8.3 NE 19 28 10 15 1013.7 1013.6 0.0
22/03:30pm 29.7 28.1 15.0 40 9.0 NE 17 26 9 14 1013.6 1013.5 0.0
22/03:00pm 30.3 27.8 13.6 36 10.0 NE 19 28 10 15 1013.7 1013.6 0.0
22/02:30pm 30.6 28.2 12.5 33 10.7 ENE 17 28 9 15 1013.8 1013.7 0.0
22/02:00pm 30.8 28.2 10.7 29 11.5 ESE 15 20 8 11 1014.1 1014.0 0.0
22/01:30pm 30.4 27.7 10.4 29 11.4 E 15 24 8 13 1014.5 1014.4 0.0
22/01:00pm 31.1 28.6 11.0 29 11.6 ENE 15 24 8 13 1015.0 1014.9 0.0
22/12:30pm 29.8 26.2 10.4 30 11.0 ENE 20 28 11 15 1015.6 1015.5 0.0
22/12:00pm 29.9 26.3 10.5 30 11.0 E 20 28 11 15 1015.9 1015.8 0.0
22/11:30am 29.2 25.4 9.9 30 10.8 ESE 20 30 11 16 1016.3 1016.2 0.0
22/11:00am 29.0 25.6 10.6 32 10.5 ESE 19 28 10 15 1016.5 1016.4 0.0
22/10:30am 27.8 24.3 10.1 33 9.9 E 19 28 10 15 1017.0 1016.9 0.0
22/10:00am 26.4 24.5 11.7 40 8.4 ESE 13 17 7 9 1017.1 1017.0 0.0
22/09:30am 24.0 22.2 12.0 47 6.8 ESE 13 17 7 9 1017.3 1017.2 0.0
22/09:00am 22.5 21.0 11.9 51 6.0 SSE 11 17 6 9 1017.3 1017.2 0.0
22/08:30am 19.6 19.3 13.3 67 3.6 SSW 7 11 4 6 1017.3 1017.2 0.0
22/08:00am 15.8 16.8 13.1 84 1.5 CALM 0 0 0 0 1017.1 1017.0 0.0
22/07:30am 12.7 12.9 10.4 86 1.2 CALM 0 0 0 0 1016.8 1016.7 0.0
22/07:00am 11.7 11.6 9.6 87 1.1 CALM 0 0 0 0 1016.5 1016.4 0.0
22/06:30am 11.6 11.5 9.3 86 1.2 CALM 0 0 0 0 1016.2 1016.1 0.0
22/06:00am 11.4 11.1 8.6 83 1.4 CALM 0 0 0 0 1015.9 1015.8 0.0
22/05:30am 11.6 11.4 9.0 84 1.3 CALM 0 0 0 0 1015.8 1015.7 0.0
22/05:00am 12.3 12.4 10.0 86 1.2 CALM 0 0 0 0 1015.6 1015.5 0.0
22/04:30am 12.0 11.9 9.4 84 1.3 CALM 0 0 0 0 1015.7 1015.6 0.0
22/04:00am 12.4 12.3 9.4 82 1.5 CALM 0 0 0 0 1015.6 1015.5 0.0
22/03:30am 12.5 12.4 9.3 81 1.6 CALM 0 0 0 0 1015.7 1015.6 0.0
22/03:00am 12.9 12.9 9.7 81 1.6 CALM 0 0 0 0 1015.9 1015.8 0.0
22/02:30am 13.3 13.4 10.3 82 1.6 CALM 0 0 0 0 1016.1 1016.0 0.0
22/02:00am 13.6 13.9 10.8 83 1.5 CALM 0 0 0 0 1016.4 1016.3 0.0
22/01:30am 13.7 13.0 9.9 78 2.0 WSW 4 7 2 4 1016.4 1016.3 0.0
22/01:00am 13.7 12.9 9.7 77 2.1 WSW 4 7 2 4 1016.5 1016.4 0.0
22/12:30am 14.1 14.2 10.3 78 2.0 CALM 0 0 0 0 1016.6 1016.5 0.0
22/12:00am 14.6 14.8 10.6 77 2.1 CALM 0 0 0 0 1016.8 1016.7 0.0
 
Date/Time
CST
Temp
°C
App
Temp
°C
Dew
Point
°C
Rel
Hum
%
Delta-T
°C
Wind Press
QNH
hPa
Press
MSL
hPa
Rain since
9am
mm
Dir  Spd
km/h
Gust
km/h
Spd
kts
Gust
kts
21/11:30pm 14.9 14.9 9.9 72 2.6 CALM 0 0 0 0 1016.9 1016.8 0.0
21/11:00pm 15.6 15.7 10.2 70 2.8 CALM 0 0 0 0 1017.0 1016.9 0.0
21/10:30pm 16.6 17.0 11.3 71 2.9 CALM 0 0 0 0 1017.1 1017.0 0.0
21/10:00pm 18.0 18.6 11.8 67 3.4 CALM 0 0 0 0 1017.1 1017.0 0.0
21/09:30pm 18.7 19.2 11.5 63 3.9 CALM 0 0 0 0 1016.9 1016.8 0.0
21/09:00pm 20.3 21.2 13.0 63 4.1 CALM 0 0 0 0 1016.6 1016.5 0.0
21/08:30pm 20.5 20.0 12.0 58 4.7 NNE 6 7 3 4 1016.3 1016.2 0.0
21/08:00pm 21.4 20.7 12.0 55 5.3 NNE 7 13 4 7 1016.1 1016.0 0.0
21/07:30pm 21.9 21.1 11.0 50 6.0 NNE 6 9 3 5 1015.7 1015.6 0.0
21/07:00pm 22.9 20.8 11.0 47 6.6 NNE 13 17 7 9 1015.2 1015.1 0.0
21/06:30pm 23.8 21.7 9.8 41 7.6 NNE 11 13 6 7 1014.8 1014.7 0.0
21/06:00pm 24.9 21.7 8.4 35 8.8 NNE 15 19 8 10 1014.3 1014.2 0.0
21/05:30pm 27.0 23.3 8.0 30 10.2 NE 17 22 9 12 1014.0 1013.9 0.0
21/05:00pm 29.5 26.0 3.5 19 13.1 ESE 11 15 6 8 1013.6 1013.5 0.0
21/04:30pm 30.1 26.5 3.2 18 13.6 E 11 19 6 10 1013.5 1013.4 0.0
21/04:00pm 30.0 25.9 2.3 17 13.8 SE 13 20 7 11 1013.6 1013.5 0.0
21/03:30pm 30.4 27.1 2.6 17 13.9 SE 9 17 5 9 1013.6 1013.5 0.0
21/03:00pm 30.5 27.0 3.5 18 13.7 ESE 11 24 6 13 1013.8 1013.7 0.0
21/02:30pm 30.6 27.4 2.8 17 14.0 E 9 20 5 11 1013.9 1013.8 0.0
21/02:00pm 29.8 25.1 2.9 18 13.5 SSE 17 30 9 16 1014.3 1014.2 0.0
21/01:30pm 30.0 24.9 3.1 18 13.5 SE 19 32 10 17 1014.8 1014.7 0.0
21/01:00pm 29.7 24.6 2.9 18 13.4 SE 19 30 10 16 1015.4 1015.3 0.0
21/12:30pm 29.8 25.4 2.9 18 13.5 ESE 15 24 8 13 1015.9 1015.8 0.0
21/12:00pm 29.4 24.4 3.4 19 13.1 ESE 19 28 10 15 1016.4 1016.3 0.0
21/11:30am 29.0 24.0 4.5 21 12.5 ESE 20 28 11 15 1016.7 1016.6 0.0
21/11:00am 27.9 23.0 4.9 23 11.8 SE 20 26 11 14 1017.0 1016.9 0.0
21/10:30am 26.7 21.9 5.6 26 10.9 SE 20 28 11 15 1017.2 1017.1 0.0
21/10:00am 25.9 22.0 7.0 30 9.9 ESE 17 26 9 14 1017.4 1017.3 0.0
21/09:30am 24.0 20.2 9.2 39 8.0 SE 19 26 10 14 1017.5 1017.4 0.0
21/09:00am 21.8 19.8 12.6 56 5.2 SE 15 20 8 11 1017.7 1017.6 0.0
21/08:30am 18.9 18.6 14.4 75 2.6 SSE 9 13 5 7 1017.5 1017.4 0.0
21/08:00am 16.0 17.6 15.0 94 0.6 CALM 0 2 0 1 1017.4 1017.3 0.0
21/07:30am 13.3 14.0 12.2 93 0.6 CALM 0 0 0 0 1017.1 1017.0 0.0
21/07:00am 12.6 13.0 11.3 92 0.7 CALM 0 0 0 0 1016.9 1016.8 0.0
21/06:30am 12.9 13.4 11.6 92 0.7 CALM 0 0 0 0 1016.5 1016.4 0.0
21/06:00am 13.3 14.0 12.2 93 0.6 CALM 0 0 0 0 1016.3 1016.2 0.0
21/05:30am 13.4 13.0 12.3 93 0.6 S 6 9 3 5 1016.0 1015.9 0.0
21/05:00am 12.6 12.9 11.0 90 0.8 CALM 0 7 0 4 1015.7 1015.6 0.0
21/04:30am 13.2 13.7 11.6 90 0.9 CALM 0 0 0 0 1015.5 1015.4 0.0
21/04:00am 13.6 14.2 12.0 90 0.9 CALM 0 0 0 0 1015.4 1015.3 0.0
21/03:30am 13.8 14.2 12.4 91 0.8 SSW 2 7 1 4 1015.4 1015.3 0.0
21/03:00am 14.5 15.3 12.7 89 1.0 CALM 0 0 0 0 1015.7 1015.6 0.0
21/02:30am 14.5 15.3 12.4 87 1.1 CALM 0 0 0 0 1016.0 1015.9 0.0
21/02:00am 15.4 16.5 13.4 88 1.1 CALM 0 0 0 0 1016.1 1016.0 0.0
21/01:30am 16.1 17.3 13.9 87 1.2 CALM 0 0 0 0 1016.2 1016.1 0.0
21/01:00am 16.5 16.7 14.3 87 1.3 SSW 6 7 3 4 1016.3 1016.2 0.0
21/12:30am 16.9 18.3 14.5 86 1.4 CALM 0 2 0 1 1016.1 1016.0 0.0
21/12:00am 17.4 19.1 15.2 87 1.3 CALM 0 0 0 0 1016.3 1016.2 0.0
 
Date/Time
CST
Temp
°C
App
Temp
°C
Dew
Point
°C
Rel
Hum
%
Delta-T
°C
Wind Press
QNH
hPa
Press
MSL
hPa
Rain since
9am
mm
Dir  Spd
km/h
Gust
km/h
Spd
kts
Gust
kts
20/11:30pm 17.9 19.8 15.7 87 1.3 CALM 0 0 0 0 1016.3 1016.2 0.0
20/11:00pm 18.2 20.0 15.6 85 1.5 CALM 0 0 0 0 1016.6 1016.5 0.0
20/10:30pm 18.6 19.0 15.3 81 1.9 SSW 7 7 4 4 1016.7 1016.6 0.0
20/10:00pm 20.0 21.0 16.4 80 2.2 ESE 6 6 3 3 1016.5 1016.4 0.0
20/09:30pm 21.2 22.7 17.6 80 2.2 ENE 6 7 3 4 1016.4 1016.3 0.0
20/09:00pm 21.3 22.7 17.7 80 2.2 ENE 7 9 4 5 1016.1 1016.0 0.0
20/08:30pm 21.7 23.1 17.9 79 2.4 NE 7 9 4 5 1015.9 1015.8 0.0
20/08:00pm 22.2 23.7 18.0 77 2.6 NE 7 11 4 6 1015.6 1015.5 0.0
20/07:30pm 22.7 23.4 18.0 75 2.9 NE 11 19 6 10 1015.2 1015.1 0.0
20/07:00pm 23.4 23.3 17.8 71 3.5 NNE 15 20 8 11 1014.7 1014.6 0.0
20/06:30pm 24.1 23.5 17.6 67 4.0 NNE 17 22 9 12 1014.4 1014.3 0.0
20/06:00pm 24.9 24.1 17.1 62 4.8 NE 17 26 9 14 1014.1 1014.0 0.0
20/05:30pm 26.2 24.8 17.0 57 5.7 NE 20 26 11 14 1014.0 1013.9 0.0
20/05:00pm 28.3 26.3 14.9 44 8.1 NE 19 30 10 16 1013.6 1013.5 0.0
20/04:30pm 31.2 29.2 8.8 25 12.5 ENE 9 15 5 8 1013.2 1013.1 0.0
20/04:00pm 31.0 28.2 8.7 25 12.4 E 13 20 7 11 1013.0 1012.9 0.0
20/03:30pm 31.3 28.8 8.3 24 12.7 ESE 11 20 6 11 1013.0 1012.9 0.0
20/03:00pm 31.4 28.6 8.4 24 12.8 ESE 13 20 7 11 1013.1 1013.0 0.0
20/02:30pm 31.2 28.3 8.2 24 12.7 SE 13 20 7 11 1013.4 1013.3 0.0
20/02:00pm 31.6 28.6 9.2 25 12.6 SE 15 22 8 12 1013.7 1013.6 0.0
20/01:30pm 31.2 27.7 8.8 25 12.5 SSE 17 24 9 13 1014.0 1013.9 0.0
20/01:00pm 31.2 27.6 8.2 24 12.7 ESE 17 28 9 15 1014.4 1014.3 0.0
20/12:30pm 30.6 27.0 8.3 25 12.3 ESE 17 28 9 15 1015.0 1014.9 0.0
20/12:00pm 29.8 25.5 7.7 25 12.0 ESE 20 28 11 15 1015.5 1015.4 0.0
20/11:30am 29.3 24.6 7.8 26 11.7 ESE 22 32 12 17 1015.9 1015.8 0.0
20/11:00am 28.8 23.8 7.9 27 11.3 ESE 24 32 13 17 1016.2 1016.1 0.0
20/10:30am 27.8 23.2 8.1 29 10.7 ESE 22 35 12 19 1016.4 1016.3 0.0
20/10:00am 26.8 22.5 9.2 33 9.7 ESE 22 35 12 19 1016.3 1016.2 0.0
20/09:30am 25.4 21.5 9.3 36 8.8 SE 20 32 11 17 1016.6 1016.5 0.0
20/09:00am 23.4 20.8 12.1 49 6.4 SE 17 24 9 13 1016.6 1016.5 0.0
20/08:30am 21.3 20.9 15.2 68 3.6 SSE 11 15 6 8 1016.3 1016.2 0.0
20/08:00am 18.2 20.5 16.7 91 0.9 CALM 0 0 0 0 1016.1 1016.0 0.0
20/07:30am 15.5 16.8 14.0 91 0.8 CALM 0 6 0 3 1015.8 1015.7 0.0
20/07:00am 15.1 16.2 13.6 91 0.8 CALM 0 0 0 0 1015.6 1015.5 0.0
20/06:30am 15.4 16.6 13.9 91 0.8 CALM 0 0 0 0 1015.4 1015.3 0.0
20/06:00am 15.8 17.2 14.5 92 0.7 CALM 0 0 0 0 1015.2 1015.1 0.0
20/05:30am 15.1 15.0 13.8 92 0.7 S 7 9 4 5 1015.0 1014.9 0.0
20/05:00am 14.9 15.9 13.3 90 0.9 CALM 0 0 0 0 1014.6 1014.5 0.0
20/04:30am 15.1 16.2 13.6 91 0.8 CALM 0 0 0 0 1014.5 1014.4 0.0
20/04:00am 15.3 16.5 13.8 91 0.8 CALM 0 6 0 3 1014.7 1014.6 0.0
20/03:30am 15.8 17.1 14.2 90 0.9 CALM 0 0 0 0 1014.7 1014.6 0.0
20/03:00am 16.5 18.1 15.0 91 0.9 CALM 0 0 0 0 1014.8 1014.7 0.0
20/02:30am 16.7 18.4 15.1 90 0.9 CALM 0 0 0 0 1015.2 1015.1 0.0
20/02:00am 17.5 19.5 16.0 91 0.9 CALM 0 0 0 0 1015.5 1015.4 0.0
20/01:30am 17.7 19.7 16.0 90 1.0 CALM 0 0 0 0 1015.8 1015.7 0.0
20/01:00am 18.1 20.2 16.3 89 1.1 CALM 0 0 0 0 1015.9 1015.8 0.0
20/12:30am 17.8 18.4 15.2 85 1.5 SW 6 7 3 4 1015.9 1015.8 0.0
20/12:00am 18.0 18.3 15.1 83 1.7 NNE 7 7 4 4 1015.9 1015.8 0.0
 
Date/Time
CST
Temp
°C
App
Temp
°C
Dew
Point
°C
Rel
Hum
%
Delta-T
°C
Wind Press
QNH
hPa
Press
MSL
hPa
Rain since
9am
mm
Dir  Spd
km/h
Gust
km/h
Spd
kts
Gust
kts
19/11:30pm 18.3 19.0 15.6 84 1.6 NNE 6 7 3 4 1015.9 1015.8 0.0
19/11:00pm 18.8 20.6 15.5 81 1.9 CALM 0 0 0 0 1016.1 1016.0 0.0
19/10:30pm 20.5 23.2 17.7 84 1.7 CALM 0 0 0 0 1016.2 1016.1 0.0
19/10:00pm 21.9 24.5 18.5 81 2.1 NNE 2 6 1 3 1016.2 1016.1 0.0
19/09:30pm 22.4 24.6 19.2 82 2.0 N 6 7 3 4 1016.1 1016.0 0.0

Other Formats:

Comma delimited format used in spreadsheet applications
http://www.bom.gov.au/fwo/IDD60801/IDD60801.94152.axf

JavaScript Object Notation format (JSON) in row-major order
http://www.bom.gov.au/fwo/IDD60801/IDD60801.94152.json